createdAt,value
2022-11-20T00:00:53.023Z,9.50
2022-11-20T00:03:20.016Z,12.73
2022-11-20T00:05:46.991Z,11.45
2022-11-20T00:08:13.846Z,9.48
2022-11-20T00:10:41.403Z,7.57
2022-11-20T00:13:08.448Z,6.57
2022-11-20T00:15:35.244Z,5.95
2022-11-20T00:18:01.914Z,5.25
2022-11-20T00:20:28.802Z,6.05
2022-11-20T00:22:55.455Z,5.03
2022-11-20T00:25:22.131Z,4.82
2022-11-20T00:27:48.909Z,5.10
2022-11-20T00:30:15.640Z,4.47
2022-11-20T00:32:42.406Z,4.72
2022-11-20T00:35:09.234Z,3.50
2022-11-20T00:37:35.960Z,4.00
2022-11-20T00:40:02.696Z,4.35
2022-11-20T00:42:29.387Z,3.50
2022-11-20T00:44:56.042Z,4.15
2022-11-20T00:47:22.803Z,5.57
2022-11-20T00:49:49.495Z,5.30
2022-11-20T00:52:16.146Z,3.40
2022-11-20T00:54:42.816Z,5.10
2022-11-20T00:57:09.511Z,3.42
2022-11-20T00:59:36.188Z,4.47
2022-11-20T01:02:02.894Z,4.65
2022-11-20T01:04:29.647Z,4.10
2022-11-20T01:06:56.497Z,4.13
2022-11-20T01:09:23.483Z,16.02
2022-11-20T01:11:50.427Z,5.97
2022-11-20T01:14:20.161Z,10.10
2022-11-20T01:16:49.561Z,5.88
2022-11-20T01:19:20.932Z,4.90
2022-11-20T01:21:50.790Z,4.75
2022-11-20T01:24:19.660Z,8.15
2022-11-20T01:26:49.022Z,24.58
2022-11-20T01:29:19.090Z,22.38
2022-11-20T01:31:46.281Z,25.38
2022-11-20T01:34:16.431Z,20.38
2022-11-20T01:36:44.241Z,13.65
2022-11-20T01:39:20.589Z,15.57
2022-11-20T01:42:09.945Z,11.32
2022-11-20T01:44:54.605Z,12.82
2022-11-20T01:47:46.147Z,11.57
2022-11-20T01:50:20.201Z,19.67
2022-11-20T01:52:52.988Z,17.02
2022-11-20T01:55:25.279Z,25.13
2022-11-20T01:57:52.551Z,26.52
2022-11-20T02:00:21.363Z,24.73
2022-11-20T02:03:00.130Z,18.83
2022-11-20T02:05:46.567Z,13.02
2022-11-20T02:08:13.849Z,14.10
2022-11-20T02:10:40.830Z,11.93
2022-11-20T02:13:26.252Z,15.50
2022-11-20T02:15:53.272Z,11.95
2022-11-20T02:18:21.464Z,9.95
2022-11-20T02:20:51.309Z,10.52
2022-11-20T02:23:27.105Z,10.77
2022-11-20T02:25:55.693Z,9.25
2022-11-20T02:28:23.550Z,16.17
2022-11-20T02:30:50.193Z,16.30
2022-11-20T02:33:16.868Z,12.07
2022-11-20T02:35:48.217Z,10.52
2022-11-20T02:38:15.802Z,7.78
2022-11-20T02:41:23.866Z,10.73
2022-11-20T02:43:50.797Z,13.75
2022-11-20T02:46:17.523Z,15.98
2022-11-20T02:48:44.260Z,11.38
2022-11-20T02:51:10.973Z,5.05
2022-11-20T02:53:37.687Z,4.93
2022-11-20T02:56:04.739Z,8.25
2022-11-20T02:58:31.426Z,5.10
2022-11-20T03:00:58.203Z,5.25
2022-11-20T03:03:24.902Z,5.57
2022-11-20T03:05:51.580Z,7.00
2022-11-20T03:08:18.393Z,6.68
2022-11-20T03:10:45.235Z,6.03
2022-11-20T03:13:11.945Z,3.15
2022-11-20T03:15:38.829Z,7.22
2022-11-20T03:18:05.703Z,6.72
2022-11-20T03:20:34.286Z,5.80
2022-11-20T03:23:01.912Z,8.50
2022-11-20T03:25:28.915Z,13.18
2022-11-20T03:27:55.793Z,6.88
2022-11-20T03:30:27.643Z,3.83
2022-11-20T03:32:57.220Z,5.93
2022-11-20T03:35:23.920Z,7.25
2022-11-20T03:37:51.156Z,7.63
2022-11-20T03:40:18.007Z,10.20
2022-11-20T03:42:47.500Z,13.55
2022-11-20T03:45:18.723Z,6.88
2022-11-20T03:47:46.635Z,6.57
2022-11-20T03:50:14.846Z,7.57
2022-11-20T03:52:42.155Z,5.32
2022-11-20T03:55:10.198Z,4.13
2022-11-20T03:57:37.058Z,7.15
2022-11-20T04:00:05.178Z,5.47
2022-11-20T04:02:31.863Z,5.82
2022-11-20T04:04:58.600Z,5.80
2022-11-20T04:07:25.317Z,3.10
2022-11-20T04:09:52.064Z,9.90
2022-11-20T04:12:18.761Z,4.50
2022-11-20T04:14:45.468Z,5.63
2022-11-20T04:17:12.191Z,2.53
2022-11-20T04:19:38.891Z,4.45
2022-11-20T04:22:05.570Z,5.03
2022-11-20T04:24:32.268Z,3.95
2022-11-20T04:26:58.981Z,3.80
2022-11-20T04:29:25.786Z,5.28
2022-11-20T04:31:52.486Z,3.63
2022-11-20T04:34:19.175Z,2.90
2022-11-20T04:36:45.852Z,2.90
2022-11-20T04:39:15.201Z,6.55
2022-11-20T04:41:42.463Z,2.85
2022-11-20T04:44:09.243Z,2.92
2022-11-20T04:46:39.243Z,3.13
2022-11-20T04:49:06.702Z,3.05
2022-11-20T04:51:34.319Z,3.50
2022-11-20T04:54:01.257Z,3.92
2022-11-20T04:56:28.023Z,3.58
2022-11-20T04:58:54.706Z,3.60
2022-11-20T05:01:24.081Z,4.05
2022-11-20T05:03:51.608Z,6.55
2022-11-20T05:06:21.189Z,6.15
2022-11-20T05:08:47.940Z,2.50
2022-11-20T05:11:25.466Z,3.97
2022-11-20T05:13:52.903Z,2.22
2022-11-20T05:16:22.984Z,2.95
2022-11-20T05:18:50.599Z,2.40
2022-11-20T05:21:18.195Z,6.28
2022-11-20T05:23:45.755Z,5.20
2022-11-20T05:26:22.202Z,2.95
2022-11-20T05:28:49.981Z,2.92
2022-11-20T05:31:27.097Z,2.35
2022-11-20T05:33:56.282Z,4.30
2022-11-20T05:36:23.030Z,3.08
2022-11-20T05:38:51.250Z,2.10
2022-11-20T05:41:20.163Z,2.08
2022-11-20T05:43:48.629Z,1.92
2022-11-20T05:46:17.742Z,2.78
2022-11-20T05:48:45.531Z,1.48
2022-11-20T05:51:17.912Z,1.85
2022-11-20T05:53:48.334Z,1.35
2022-11-20T05:56:20.779Z,2.20
2022-11-20T05:58:48.515Z,1.00
2022-11-20T06:01:21.237Z,4.07
2022-11-20T06:03:48.737Z,3.50
2022-11-20T06:06:17.110Z,3.28
2022-11-20T06:08:45.035Z,1.63
2022-11-20T06:11:13.608Z,1.15
2022-11-20T06:13:42.475Z,1.80
2022-11-20T06:16:10.839Z,1.95
2022-11-20T06:18:37.718Z,2.92
2022-11-20T06:21:08.475Z,4.10
2022-11-20T06:23:36.717Z,2.22
2022-11-20T06:26:04.569Z,1.38
2022-11-20T06:28:31.879Z,2.88
2022-11-20T06:30:59.039Z,1.67
2022-11-20T06:33:26.055Z,3.13
2022-11-20T06:35:58.408Z,2.65
2022-11-20T06:38:27.653Z,1.55
2022-11-20T06:40:55.014Z,1.30
2022-11-20T06:43:22.648Z,2.22
2022-11-20T06:45:54.092Z,1.90
2022-11-20T06:48:21.500Z,1.90
2022-11-20T06:50:48.205Z,3.20
2022-11-20T06:53:15.079Z,3.13
2022-11-20T06:55:48.812Z,2.60
2022-11-20T06:58:16.756Z,1.65
2022-11-20T07:00:43.712Z,2.28
2022-11-20T07:03:12.478Z,1.63
2022-11-20T07:05:42.175Z,0.68
2022-11-20T07:08:09.519Z,1.90
2022-11-20T07:10:36.581Z,2.60
2022-11-20T07:13:03.343Z,2.58
2022-11-20T07:15:30.635Z,3.28
2022-11-20T07:18:00.708Z,1.27
2022-11-20T07:20:27.638Z,2.10
2022-11-20T07:22:58.649Z,3.10
2022-11-20T07:25:27.428Z,3.05
2022-11-20T07:27:57.534Z,2.67
2022-11-20T07:30:24.246Z,2.53
2022-11-20T07:32:54.716Z,2.35
2022-11-20T07:35:21.550Z,2.03
2022-11-20T07:37:49.506Z,1.30
2022-11-20T07:40:17.384Z,1.33
2022-11-20T07:42:56.073Z,1.20
2022-11-20T07:45:24.425Z,1.23
2022-11-20T07:47:51.708Z,1.10
2022-11-20T07:50:19.287Z,1.48
2022-11-20T07:52:46.240Z,0.63
2022-11-20T07:55:13.373Z,0.75
2022-11-20T07:57:41.043Z,1.40
2022-11-20T08:00:10.228Z,1.52
2022-11-20T08:02:40.866Z,2.67
2022-11-20T08:05:09.578Z,1.52
2022-11-20T08:07:38.743Z,1.42
2022-11-20T08:10:06.495Z,1.30
2022-11-20T08:12:51.804Z,1.75
2022-11-20T08:15:19.029Z,0.90
2022-11-20T08:18:01.943Z,1.38
2022-11-20T08:20:33.159Z,1.17
2022-11-20T08:23:04.868Z,1.50
2022-11-20T08:28:01.350Z,2.17
2022-11-20T08:33:03.830Z,1.75
2022-11-20T08:35:34.081Z,1.83
2022-11-20T08:38:00.789Z,3.33
2022-11-20T08:40:27.719Z,1.10
2022-11-20T08:42:54.564Z,1.15
2022-11-20T08:45:21.399Z,1.70
2022-11-20T08:47:48.440Z,1.48
2022-11-20T08:50:17.284Z,1.02
2022-11-20T08:52:44.398Z,1.48
2022-11-20T08:55:11.405Z,1.77
2022-11-20T08:57:38.878Z,1.33
2022-11-20T09:00:07.584Z,2.00
2022-11-20T09:02:34.926Z,0.80
2022-11-20T09:05:03.299Z,1.23
2022-11-20T09:07:30.916Z,1.27
2022-11-20T09:10:22.687Z,1.58
2022-11-20T09:12:50.311Z,2.40
2022-11-20T09:15:17.253Z,1.10
2022-11-20T09:17:50.976Z,2.20
2022-11-20T09:20:17.967Z,1.52
2022-11-20T09:22:44.696Z,2.83
2022-11-20T09:25:11.684Z,1.27
2022-11-20T09:27:38.376Z,1.08
2022-11-20T09:30:05.875Z,2.15
2022-11-20T09:32:32.607Z,0.90
2022-11-20T09:35:02.397Z,1.33
2022-11-20T09:37:29.524Z,0.98
2022-11-20T09:39:56.281Z,0.90
2022-11-20T09:42:48.660Z,0.85
2022-11-20T09:45:20.283Z,0.75
2022-11-20T09:48:00.126Z,0.80
2022-11-20T09:50:30.251Z,1.35
2022-11-20T09:53:23.052Z,1.33
2022-11-20T09:55:50.298Z,0.75
2022-11-20T09:58:30.619Z,1.27
2022-11-20T10:01:06.967Z,1.98
2022-11-20T10:04:05.201Z,0.85
2022-11-20T10:06:42.358Z,1.30
2022-11-20T10:09:12.130Z,3.75
2022-11-20T10:12:06.800Z,2.20
2022-11-20T10:14:40.121Z,2.45
2022-11-20T10:18:07.514Z,3.20
2022-11-20T10:20:47.190Z,5.53
2022-11-20T10:23:29.552Z,1.85
2022-11-20T10:26:05.543Z,4.22
2022-11-20T10:28:41.827Z,3.00
2022-11-20T10:31:19.280Z,2.78
2022-11-20T10:34:11.030Z,2.22
2022-11-20T10:36:48.905Z,4.77
2022-11-20T10:39:19.486Z,4.95
2022-11-20T10:41:51.873Z,3.90
2022-11-20T10:44:41.403Z,3.03
2022-11-20T10:47:16.692Z,2.40
2022-11-20T10:49:46.266Z,3.15
2022-11-20T10:52:28.417Z,3.08
2022-11-20T10:55:12.023Z,3.20
2022-11-20T10:58:03.064Z,2.33
2022-11-20T11:00:32.422Z,1.70
2022-11-20T11:03:05.310Z,2.72
2022-11-20T11:05:57.733Z,2.92
2022-11-20T11:08:27.336Z,3.72
2022-11-20T11:11:16.236Z,2.35
2022-11-20T11:13:42.916Z,1.50
2022-11-20T11:16:28.004Z,1.85
2022-11-20T11:19:05.949Z,3.38
2022-11-20T11:21:32.649Z,1.77
2022-11-20T11:24:27.025Z,1.50
2022-11-20T11:27:00.532Z,1.80
2022-11-20T11:29:30.352Z,5.15
2022-11-20T11:32:07.570Z,3.45
2022-11-20T11:34:34.325Z,3.92
2022-11-20T11:37:02.610Z,5.25
2022-11-20T11:39:31.594Z,3.55
2022-11-20T11:42:01.106Z,5.00
2022-11-20T11:44:53.969Z,3.13
2022-11-20T11:47:27.710Z,4.80
2022-11-20T11:50:09.887Z,4.40
2022-11-20T11:53:12.927Z,3.75
2022-11-20T11:55:59.528Z,3.38
2022-11-20T11:58:42.962Z,2.67
2022-11-20T12:01:35.115Z,3.10
2022-11-20T12:04:17.956Z,3.40
2022-11-20T12:06:51.032Z,5.15
2022-11-20T12:09:20.685Z,4.55
2022-11-20T12:11:50.488Z,3.75
2022-11-20T12:14:38.960Z,2.75
2022-11-20T12:17:06.212Z,3.08
2022-11-20T12:19:35.685Z,3.47
2022-11-20T12:22:23.235Z,2.00
2022-11-20T12:25:14.661Z,1.80
2022-11-20T12:28:11.105Z,4.60
2022-11-20T12:30:53.735Z,2.03
2022-11-20T12:33:37.246Z,1.65
2022-11-20T12:36:07.026Z,1.00
2022-11-20T12:38:42.639Z,1.48
2022-11-20T12:41:44.477Z,2.00
2022-11-20T12:45:00.907Z,1.20
2022-11-20T12:47:37.722Z,1.52
2022-11-20T12:50:16.411Z,1.77
2022-11-20T12:53:04.368Z,3.53
2022-11-20T12:56:01.790Z,1.63
2022-11-20T12:58:50.207Z,1.00
2022-11-20T13:01:41.964Z,2.70
2022-11-20T13:04:25.230Z,2.58
2022-11-20T13:06:52.203Z,2.28
2022-11-20T13:09:23.423Z,1.83
2022-11-20T13:12:11.271Z,2.15
2022-11-20T13:14:44.623Z,2.28
2022-11-20T13:17:25.411Z,1.30
2022-11-20T13:19:59.634Z,1.95
2022-11-20T13:22:47.828Z,1.40
2022-11-20T13:25:48.811Z,2.60
2022-11-20T13:28:15.476Z,2.22
2022-11-20T13:30:53.915Z,3.58
2022-11-20T13:33:33.695Z,1.05
2022-11-20T13:36:06.870Z,1.48
2022-11-20T13:38:49.250Z,2.05
2022-11-20T13:41:36.248Z,1.60
2022-11-20T13:44:29.287Z,1.45
2022-11-20T13:46:56.008Z,2.63
2022-11-20T13:49:43.823Z,3.40
2022-11-20T13:52:24.088Z,2.05
2022-11-20T13:55:09.070Z,2.55
2022-11-20T13:57:58.563Z,2.17
2022-11-20T14:00:26.898Z,4.80
2022-11-20T14:03:18.735Z,2.20
2022-11-20T14:05:55.549Z,3.30
2022-11-20T14:08:44.391Z,2.08
2022-11-20T14:11:25.480Z,1.65
2022-11-20T14:14:18.490Z,1.42
2022-11-20T14:16:49.289Z,3.92
2022-11-20T14:19:25.980Z,1.13
2022-11-20T14:21:55.527Z,1.52
2022-11-20T14:24:24.424Z,4.80
2022-11-20T14:26:52.779Z,3.45
2022-11-20T14:29:28.755Z,5.45
2022-11-20T14:31:57.408Z,3.33
2022-11-20T14:34:30.048Z,1.88
2022-11-20T14:37:03.285Z,20.58
2022-11-20T14:39:41.387Z,53.15
2022-11-20T14:42:25.247Z,4.30
2022-11-20T14:44:55.187Z,11.43
2022-11-20T14:47:31.566Z,5.63
2022-11-20T14:50:02.622Z,1.95
2022-11-20T14:52:32.710Z,4.72
2022-11-20T14:55:03.092Z,3.40
2022-11-20T14:57:35.531Z,3.22
2022-11-20T15:00:13.409Z,2.53
2022-11-20T15:02:43.363Z,2.42
2022-11-20T15:05:10.890Z,2.22
2022-11-20T15:07:46.437Z,3.42
2022-11-20T15:10:20.580Z,3.58
2022-11-20T15:12:52.221Z,3.08
2022-11-20T15:17:48.904Z,3.47
2022-11-20T15:20:17.876Z,3.38
2022-11-20T15:22:45.163Z,2.58
2022-11-20T15:25:21.208Z,3.58
2022-11-20T15:27:53.817Z,3.75
2022-11-20T15:30:22.116Z,2.00
2022-11-20T15:32:49.841Z,2.47
2022-11-20T15:35:17.030Z,2.92
2022-11-20T15:37:44.178Z,2.65
2022-11-20T15:40:11.271Z,2.03
2022-11-20T15:42:38.085Z,2.58
2022-11-20T15:45:05.320Z,1.95
2022-11-20T15:47:37.113Z,3.97
2022-11-20T15:52:40.432Z,3.58
2022-11-20T15:55:11.465Z,1.60
2022-11-20T15:57:38.165Z,2.08
2022-11-20T16:00:05.612Z,2.00
2022-11-20T16:02:37.515Z,2.70
2022-11-20T16:05:05.601Z,1.00
2022-11-20T16:07:32.423Z,2.42
2022-11-20T16:09:59.569Z,4.95
2022-11-20T16:12:45.179Z,2.00
2022-11-20T16:15:30.415Z,3.47
2022-11-20T16:17:57.125Z,2.53
2022-11-20T16:20:23.888Z,2.53
2022-11-20T16:22:50.577Z,1.85
2022-11-20T16:25:17.291Z,2.47
2022-11-20T16:27:44.034Z,3.33
2022-11-20T16:30:11.288Z,4.28
2022-11-20T16:32:39.635Z,2.72
2022-11-20T16:35:08.439Z,1.52
2022-11-20T16:37:35.163Z,2.60
2022-11-20T16:40:02.012Z,2.33
2022-11-20T16:42:28.806Z,2.35
2022-11-20T16:44:55.535Z,4.65
2022-11-20T16:47:22.212Z,7.45
2022-11-20T16:49:48.917Z,5.82
2022-11-20T16:52:15.799Z,8.02
2022-11-20T16:54:42.585Z,6.53
2022-11-20T16:57:09.310Z,11.07
2022-11-20T16:59:36.060Z,8.73
2022-11-20T17:02:02.791Z,8.90
2022-11-20T17:04:29.562Z,8.27
2022-11-20T17:06:56.382Z,8.75
2022-11-20T17:09:23.072Z,4.75
2022-11-20T17:11:49.967Z,3.58
2022-11-20T17:14:16.706Z,2.65
2022-11-20T17:16:43.450Z,3.92
2022-11-20T17:19:10.243Z,3.35
2022-11-20T17:21:38.049Z,3.50
2022-11-20T17:24:06.815Z,3.05
2022-11-20T17:26:34.964Z,2.10
2022-11-20T17:29:07.719Z,1.77
2022-11-20T17:31:35.576Z,1.77
2022-11-20T17:34:02.627Z,1.40
2022-11-20T17:36:30.780Z,1.67
2022-11-20T17:38:58.485Z,1.90
2022-11-20T17:41:28.053Z,3.63
2022-11-20T17:43:59.831Z,2.20
2022-11-20T17:46:35.120Z,3.63
2022-11-20T17:49:03.025Z,3.60
2022-11-20T17:51:32.338Z,3.08
2022-11-20T17:54:01.748Z,2.58
2022-11-20T17:56:51.536Z,1.52
2022-11-20T17:59:18.965Z,3.70
2022-11-20T18:01:46.158Z,3.28
2022-11-20T18:04:13.309Z,1.25
2022-11-20T18:06:40.519Z,2.20
2022-11-20T18:09:07.625Z,1.80
2022-11-20T18:11:37.253Z,1.10
2022-11-20T18:14:25.542Z,1.05
2022-11-20T18:16:58.083Z,1.55
2022-11-20T18:19:32.127Z,1.08
2022-11-20T18:22:01.399Z,3.15
2022-11-20T18:24:28.681Z,0.98
2022-11-20T18:26:55.819Z,0.93
2022-11-20T18:29:22.908Z,2.63
2022-11-20T18:31:49.925Z,1.85
2022-11-20T18:34:17.483Z,1.45
2022-11-20T18:36:45.344Z,0.73
2022-11-20T18:39:13.734Z,1.13
2022-11-20T18:41:59.683Z,0.80
2022-11-20T18:44:49.944Z,0.88
2022-11-20T18:47:24.988Z,1.45
2022-11-20T18:49:54.777Z,0.90
2022-11-20T18:52:38.071Z,1.27
2022-11-20T18:55:06.062Z,0.47
2022-11-20T18:57:33.108Z,0.60
2022-11-20T19:02:47.484Z,0.90
2022-11-20T19:05:15.151Z,1.10
2022-11-20T19:07:42.938Z,1.08
2022-11-20T19:10:10.046Z,0.57
2022-11-20T19:12:36.944Z,1.00
2022-11-20T19:15:04.174Z,0.28
2022-11-20T19:17:32.580Z,0.40
2022-11-20T19:20:00.182Z,1.33
2022-11-20T19:22:26.899Z,0.60
2022-11-20T19:24:53.659Z,0.52
2022-11-20T19:27:20.371Z,0.95
2022-11-20T19:29:47.092Z,0.55
2022-11-20T19:32:13.791Z,0.55
2022-11-20T19:34:40.594Z,0.95
2022-11-20T19:37:07.308Z,0.43
2022-11-20T19:39:36.178Z,0.10
2022-11-20T19:42:02.955Z,0.10
2022-11-20T19:44:29.694Z,1.20
2022-11-20T19:46:57.248Z,0.43
2022-11-20T19:49:24.074Z,0.28
2022-11-20T19:51:51.223Z,0.38
2022-11-20T19:54:18.054Z,0.22
2022-11-20T19:56:46.550Z,0.35
2022-11-20T19:59:14.097Z,0.95
2022-11-20T20:01:40.874Z,0.13
2022-11-20T20:04:07.766Z,0.30
2022-11-20T20:06:38.695Z,0.20
2022-11-20T20:09:08.640Z,0.60
2022-11-20T20:11:36.198Z,1.25
2022-11-20T20:14:13.681Z,0.38
2022-11-20T20:16:41.223Z,0.43
2022-11-20T20:19:07.938Z,1.88
2022-11-20T20:21:36.282Z,0.98
2022-11-20T20:24:03.502Z,1.98
2022-11-20T20:26:31.749Z,1.27
2022-11-20T20:28:59.365Z,0.30
2022-11-20T20:31:27.876Z,1.30
2022-11-20T20:33:54.882Z,0.85
2022-11-20T20:36:23.375Z,0.30
2022-11-20T20:39:02.797Z,0.95
2022-11-20T20:41:30.048Z,0.25
2022-11-20T20:44:15.446Z,0.50
2022-11-20T20:46:42.242Z,0.32
2022-11-20T20:49:09.614Z,0.30
2022-11-20T20:51:36.869Z,0.40
2022-11-20T20:54:04.484Z,0.35
2022-11-20T20:56:31.322Z,0.40
2022-11-20T20:58:58.087Z,0.60
2022-11-20T21:01:28.519Z,3.60
2022-11-20T21:03:56.094Z,0.98
2022-11-20T21:06:22.921Z,0.75
2022-11-20T21:08:49.647Z,1.25
2022-11-20T21:11:19.076Z,1.15
2022-11-20T21:13:46.951Z,1.48
2022-11-20T21:16:15.157Z,1.55
2022-11-20T21:18:41.983Z,2.47
2022-11-20T21:21:31.072Z,1.80
2022-11-20T21:23:58.620Z,3.53
2022-11-20T21:26:25.495Z,1.38
2022-11-20T21:28:52.202Z,1.33
2022-11-20T21:31:28.398Z,2.08
2022-11-20T21:33:56.494Z,1.40
2022-11-20T21:36:28.920Z,0.95
2022-11-20T21:38:57.096Z,0.90
2022-11-20T21:41:26.472Z,0.43
2022-11-20T21:44:30.110Z,1.60
2022-11-20T21:46:43.587Z,1.17
2022-11-20T21:49:10.607Z,2.47
2022-11-20T21:51:37.698Z,2.22
2022-11-20T21:54:04.517Z,0.80
2022-11-20T21:56:31.260Z,1.70
2022-11-20T21:58:58.757Z,0.93
2022-11-20T22:01:28.188Z,3.40
2022-11-20T22:03:57.482Z,1.10
2022-11-20T22:06:25.987Z,1.80
2022-11-20T22:08:52.998Z,2.20
2022-11-20T22:11:21.731Z,2.28
2022-11-20T22:14:07.686Z,2.38
2022-11-20T22:16:36.053Z,1.98
2022-11-20T22:19:03.903Z,2.03
2022-11-20T22:21:31.362Z,3.30
2022-11-20T22:23:58.347Z,1.40
2022-11-20T22:26:28.915Z,1.25
2022-11-20T22:28:57.311Z,1.00
2022-11-20T22:31:26.440Z,2.30
2022-11-20T22:33:54.129Z,3.00
2022-11-20T22:36:23.703Z,1.63
2022-11-20T22:38:50.748Z,1.13
2022-11-20T22:41:23.142Z,1.70
2022-11-20T22:43:57.342Z,2.00
2022-11-20T22:46:25.454Z,2.17
2022-11-20T22:48:57.221Z,1.52
2022-11-20T22:53:52.420Z,2.65
2022-11-20T22:56:19.243Z,1.92
2022-11-20T22:58:48.346Z,1.92
2022-11-20T23:01:19.124Z,1.13
2022-11-20T23:03:51.360Z,2.47
2022-11-20T23:06:19.857Z,1.98
2022-11-20T23:08:50.160Z,2.00
2022-11-20T23:11:19.489Z,1.23
2022-11-20T23:13:47.551Z,1.15
2022-11-20T23:16:19.911Z,1.60
2022-11-20T23:18:46.929Z,0.88
2022-11-20T23:21:15.721Z,2.47
2022-11-20T23:23:43.443Z,1.15
2022-11-20T23:26:12.699Z,1.23
2022-11-20T23:28:40.554Z,2.13
2022-11-20T23:31:08.114Z,3.05
2022-11-20T23:33:43.562Z,5.43
2022-11-20T23:36:10.713Z,0.82
2022-11-20T23:38:37.462Z,0.68
2022-11-20T23:41:06.632Z,1.55
2022-11-20T23:43:33.591Z,3.03
2022-11-20T23:46:01.509Z,1.20
2022-11-20T23:48:34.271Z,1.55
2022-11-20T23:51:01.688Z,3.50
2022-11-20T23:53:28.691Z,2.92
2022-11-20T23:55:57.347Z,2.35
2022-11-20T23:58:26.319Z,2.72
